Time;durP1;ratioP1;P1;durP2;ratioP2;P2;SDS_P1;SDS_P2;PMS_P1;PMS_P2;Temp;Humidity;BMP_temperature;BMP_pressure;BME280_temperature;BME280_humidity;BME280_pressure;Samples;Min_cycle;Max_cycle;Signal;HPM_P1;HPM_P2
2021/06/12 00:00:45;;;;;;;17.95;16.05;;;;;;;;;;5121806;27;20023;-71
2021/06/12 00:03:11;;;;;;;19.02;17.02;;;;;;;;;;5118499;27;20036;-71
2021/06/12 00:05:37;;;;;;;20.85;17.40;;;;;;;;;;5119205;27;20484;-71
2021/06/12 00:08:03;;;;;;;20.38;16.65;;;;;;;;;;5117473;27;20027;-70
2021/06/12 00:10:31;;;;;;;17.70;15.80;;;;;;;;;;5117968;27;20019;-71
2021/06/12 00:12:58;;;;;;;17.58;15.77;;;;;;;;;;5120701;27;20116;-70
2021/06/12 00:15:24;;;;;;;20.00;16.45;;;;;;;;;;5121623;27;20046;-71
2021/06/12 00:17:50;;;;;;;19.07;17.07;;;;;;;;;;5117828;27;20409;-72
2021/06/12 00:20:19;;;;;;;19.88;17.58;;;;;;;;;;5116750;28;20123;-70
2021/06/12 00:22:45;;;;;;;19.17;16.40;;;;;;;;;;5104798;28;20080;-71
2021/06/12 00:25:12;;;;;;;18.35;16.42;;;;;;;;;;5117063;28;20047;-71
2021/06/12 00:27:39;;;;;;;20.77;18.48;;;;;;;;;;5104928;28;20019;-71
2021/06/12 00:30:06;;;;;;;24.63;19.20;;;;;;;;;;5116813;28;20121;-70
2021/06/12 00:32:32;;;;;;;24.02;18.45;;;;;;;;;;5118532;28;20023;-71
2021/06/12 00:34:58;;;;;;;25.85;18.30;;;;;;;;;;5117503;28;20047;-70
2021/06/12 00:37:24;;;;;;;24.85;18.55;;;;;;;;;;5118905;28;20023;-71
2021/06/12 00:39:50;;;;;;;21.00;18.80;;;;;;;;;;5112904;28;20101;-70
2021/06/12 00:42:16;;;;;;;22.42;18.58;;;;;;;;;;5119618;28;20120;-71
2021/06/12 00:44:43;;;;;;;22.40;18.42;;;;;;;;;;5120958;28;20046;-70
2021/06/12 00:47:09;;;;;;;24.80;17.67;;;;;;;;;;5117215;28;20030;-70
2021/06/12 00:49:35;;;;;;;22.42;17.52;;;;;;;;;;5120530;28;20023;-70
2021/06/12 00:52:01;;;;;;;19.85;17.75;;;;;;;;;;5118893;28;20051;-71
2021/06/12 00:54:27;;;;;;;20.15;17.27;;;;;;;;;;5116240;28;20054;-71
2021/06/12 00:56:53;;;;;;;21.88;16.50;;;;;;;;;;5117880;28;20410;-71
2021/06/12 00:59:20;;;;;;;19.98;16.40;;;;;;;;;;5116137;28;20070;-71
2021/06/12 01:01:46;;;;;;;23.83;17.85;;;;;;;;;;5115745;28;20023;-69
2021/06/12 01:04:11;;;;;;;20.23;17.10;;;;;;;;;;5114116;28;20042;-71
2021/06/12 01:06:37;;;;;;;20.67;17.98;;;;;;;;;;5116596;28;20494;-70
2021/06/12 01:09:04;;;;;;;20.50;18.40;;;;;;;;;;5120526;28;20039;-71
2021/06/12 01:11:31;;;;;;;19.02;17.10;;;;;;;;;;5115963;28;20031;-71
2021/06/12 01:13:57;;;;;;;19.90;17.77;;;;;;;;;;5114413;28;20023;-71
2021/06/12 01:16:26;;;;;;;22.35;18.13;;;;;;;;;;5118622;28;20030;-71
2021/06/12 01:18:52;;;;;;;19.95;17.95;;;;;;;;;;5115643;28;20079;-71
2021/06/12 01:21:34;;;;;;;20.33;18.23;;;;;;;;;;5096546;28;20035;-70
2021/06/12 01:24:12;;;;;;;19.75;17.63;;;;;;;;;;5114642;27;20027;-70
2021/06/12 01:26:41;;;;;;;20.35;18.15;;;;;;;;;;5121538;27;20031;-75
2021/06/12 01:29:19;;;;;;;22.60;18.15;;;;;;;;;;5120780;27;20461;-71
2021/06/12 01:31:46;;;;;;;24.42;18.75;;;;;;;;;;5121457;27;20313;-71
2021/06/12 01:34:12;;;;;;;23.38;20.27;;;;;;;;;;5121517;27;20031;-71
2021/06/12 01:36:38;;;;;;;22.08;19.67;;;;;;;;;;5120552;27;20043;-71
2021/06/12 01:39:04;;;;;;;22.25;19.80;;;;;;;;;;5124646;27;20107;-71
2021/06/12 01:41:32;;;;;;;23.17;18.58;;;;;;;;;;5123333;27;20038;-71
2021/06/12 01:43:59;;;;;;;21.17;18.85;;;;;;;;;;5124050;27;20456;-71
2021/06/12 01:46:25;;;;;;;24.67;19.48;;;;;;;;;;5123350;27;20037;-71
2021/06/12 01:48:51;;;;;;;20.35;18.25;;;;;;;;;;5119045;27;20036;-70
2021/06/12 01:51:18;;;;;;;21.25;18.45;;;;;;;;;;5123819;27;20031;-70
2021/06/12 01:53:44;;;;;;;21.17;18.92;;;;;;;;;;5122428;27;20088;-71
2021/06/12 01:56:11;;;;;;;21.90;18.65;;;;;;;;;;5118859;27;20019;-71
2021/06/12 01:58:39;;;;;;;20.85;18.75;;;;;;;;;;5118872;27;20075;-70
2021/06/12 02:01:06;;;;;;;21.13;18.83;;;;;;;;;;5103620;27;20027;-70
2021/06/12 02:03:33;;;;;;;20.70;18.45;;;;;;;;;;5119331;27;20035;-70
2021/06/12 02:05:59;;;;;;;23.30;19.77;;;;;;;;;;5119587;27;20050;-71
2021/06/12 02:08:26;;;;;;;22.05;19.75;;;;;;;;;;5120336;27;20055;-70
2021/06/12 02:10:52;;;;;;;22.38;20.17;;;;;;;;;;5120040;27;20071;-71
2021/06/12 02:13:20;;;;;;;24.10;19.73;;;;;;;;;;5118747;27;20397;-70
2021/06/12 02:15:51;;;;;;;22.65;18.88;;;;;;;;;;5121093;27;20469;-71
2021/06/12 02:18:18;;;;;;;21.35;18.73;;;;;;;;;;5117335;27;20031;-70
2021/06/12 02:20:44;;;;;;;20.50;18.25;;;;;;;;;;5118952;27;20089;-71
2021/06/12 02:23:10;;;;;;;23.52;19.08;;;;;;;;;;5117135;27;20057;-71
2021/06/12 02:25:37;;;;;;;23.83;19.92;;;;;;;;;;5117069;27;20851;-70
2021/06/12 02:28:06;;;;;;;23.92;20.98;;;;;;;;;;5119196;27;20020;-70
2021/06/12 02:30:33;;;;;;;23.83;21.33;;;;;;;;;;5118255;27;20053;-70
2021/06/12 02:33:01;;;;;;;23.98;19.55;;;;;;;;;;5118665;27;20472;-70
2021/06/12 02:35:27;;;;;;;;;;;;;;;;;;5098089;27;20046;-70
2021/06/12 02:37:53;;;;;;;23.77;20.35;;;;;;;;;;5120618;27;19907;-71
2021/06/12 02:40:19;;;;;;;25.30;20.00;;;;;;;;;;5119385;27;20057;-71
2021/06/12 02:42:45;;;;;;;23.00;20.60;;;;;;;;;;5121749;27;20465;-69
2021/06/12 02:45:12;;;;;;;23.77;21.08;;;;;;;;;;5120125;27;20257;-70
2021/06/12 02:47:42;;;;;;;23.60;20.23;;;;;;;;;;5122884;27;20035;-71
2021/06/12 02:50:09;;;;;;;24.73;22.08;;;;;;;;;;5119963;27;20035;-70
2021/06/12 02:52:36;;;;;;;24.52;22.02;;;;;;;;;;5121376;27;20082;-70
2021/06/12 02:55:05;;;;;;;24.77;22.23;;;;;;;;;;5119069;27;20015;-70
2021/06/12 02:57:31;;;;;;;24.67;22.08;;;;;;;;;;5104062;27;20627;-71
2021/06/12 02:59:58;;;;;;;24.17;21.45;;;;;;;;;;5123363;27;20023;-70
2021/06/12 03:02:25;;;;;;;25.58;21.40;;;;;;;;;;5119472;27;20435;-70
2021/06/12 03:04:52;;;;;;;23.17;20.70;;;;;;;;;;5117431;27;20114;-70
2021/06/12 03:07:19;;;;;;;25.38;21.05;;;;;;;;;;5118774;27;20034;-70
2021/06/12 03:09:45;;;;;;;27.07;22.30;;;;;;;;;;5114318;27;20027;-71
2021/06/12 03:12:12;;;;;;;27.08;22.52;;;;;;;;;;5119642;27;20372;-72
2021/06/12 03:14:40;;;;;;;26.17;22.17;;;;;;;;;;5120957;27;20442;-70
2021/06/12 03:17:06;;;;;;;25.92;22.55;;;;;;;;;;5119942;27;20041;-71
2021/06/12 03:19:33;;;;;;;31.98;23.23;;;;;;;;;;5098815;27;20678;-71
2021/06/12 03:22:00;;;;;;;27.35;24.38;;;;;;;;;;5121957;27;20033;-71
2021/06/12 03:24:28;;;;;;;27.52;23.27;;;;;;;;;;5103687;27;20024;-70
2021/06/12 03:26:59;;;;;;;26.45;23.48;;;;;;;;;;5117307;27;20042;-71
2021/06/12 03:29:25;;;;;;;28.08;23.30;;;;;;;;;;5101033;27;20031;-71
2021/06/12 03:31:51;;;;;;;27.13;23.73;;;;;;;;;;5116432;27;20130;-70
2021/06/12 03:34:17;;;;;;;28.15;22.65;;;;;;;;;;5118261;27;20114;-69
2021/06/12 03:36:43;;;;;;;24.35;21.73;;;;;;;;;;5104372;27;20122;-72
2021/06/12 03:39:09;;;;;;;25.90;21.33;;;;;;;;;;5122015;27;20050;-71
2021/06/12 03:41:36;;;;;;;25.63;22.00;;;;;;;;;;5117394;27;20564;-70
2021/06/12 03:44:02;;;;;;;25.15;21.95;;;;;;;;;;5118863;27;20038;-70
2021/06/12 03:46:28;;;;;;;25.67;22.48;;;;;;;;;;5115772;27;20039;-71
2021/06/12 03:48:55;;;;;;;26.65;23.25;;;;;;;;;;5116762;27;20024;-71
2021/06/12 03:51:21;;;;;;;30.67;24.37;;;;;;;;;;5121274;27;20027;-72
2021/06/12 03:53:48;;;;;;;27.87;24.63;;;;;;;;;;5120398;27;20300;-69
2021/06/12 03:56:24;;;;;;;30.73;25.98;;;;;;;;;;5116518;27;20080;-70
2021/06/12 03:58:51;;;;;;;28.08;24.45;;;;;;;;;;5120167;27;20102;-70
2021/06/12 04:01:18;;;;;;;27.02;22.45;;;;;;;;;;5118479;27;20035;-70
2021/06/12 04:03:44;;;;;;;27.83;23.63;;;;;;;;;;5117503;27;20682;-71
2021/06/12 04:06:11;;;;;;;25.77;22.98;;;;;;;;;;5118849;27;20130;-70
2021/06/12 04:08:37;;;;;;;26.13;22.63;;;;;;;;;;5122094;27;20023;-71
2021/06/12 04:11:03;;;;;;;23.90;21.35;;;;;;;;;;5121049;27;20023;-71
2021/06/12 04:13:29;;;;;;;24.70;21.98;;;;;;;;;;5121703;27;20070;-71
2021/06/12 04:15:55;;;;;;;25.52;22.80;;;;;;;;;;5117686;27;20115;-70
2021/06/12 04:18:22;;;;;;;24.88;22.08;;;;;;;;;;5118682;27;20046;-71
2021/06/12 04:20:48;;;;;;;25.48;22.40;;;;;;;;;;5117651;27;22097;-70
2021/06/12 04:23:14;;;;;;;24.33;21.73;;;;;;;;;;5121331;27;20590;-71
2021/06/12 04:25:40;;;;;;;24.95;21.65;;;;;;;;;;5115189;27;20158;-69
2021/06/12 04:28:06;;;;;;;24.00;21.40;;;;;;;;;;5121761;28;20038;-70
2021/06/12 04:30:33;;;;;;;24.98;22.33;;;;;;;;;;5116301;28;20015;-71
2021/06/12 04:32:59;;;;;;;23.48;21.08;;;;;;;;;;5116987;28;20115;-71
2021/06/12 04:35:28;;;;;;;24.80;22.20;;;;;;;;;;5117731;28;21023;-71
2021/06/12 04:37:55;;;;;;;24.73;21.88;;;;;;;;;;5118322;28;20493;-71
2021/06/12 04:40:21;;;;;;;23.23;20.73;;;;;;;;;;5122056;28;20020;-71
2021/06/12 04:42:47;;;;;;;23.48;21.00;;;;;;;;;;5121766;28;20037;-70
2021/06/12 04:45:13;;;;;;;23.05;20.55;;;;;;;;;;5122116;28;20478;-70
2021/06/12 04:47:39;;;;;;;21.85;19.55;;;;;;;;;;5118163;28;20043;-70
2021/06/12 04:50:06;;;;;;;21.02;18.83;;;;;;;;;;5116653;28;20779;-71
2021/06/12 04:52:32;;;;;;;20.50;18.42;;;;;;;;;;5116902;28;20047;-71
2021/06/12 04:54:58;;;;;;;20.45;18.42;;;;;;;;;;5117495;28;20441;-69
2021/06/12 04:57:24;;;;;;;20.65;18.23;;;;;;;;;;5115550;28;20031;-69
2021/06/12 04:59:50;;;;;;;21.15;19.05;;;;;;;;;;5119428;27;20604;-70
2021/06/12 05:02:16;;;;;;;22.90;20.60;;;;;;;;;;5120501;27;20031;-71
2021/06/12 05:04:42;;;;;;;22.55;20.23;;;;;;;;;;5126542;27;20034;-71
2021/06/12 05:07:08;;;;;;;20.73;18.63;;;;;;;;;;5118930;27;20056;-71
2021/06/12 05:09:34;;;;;;;19.90;17.92;;;;;;;;;;5119570;27;20023;-70
2021/06/12 05:12:00;;;;;;;19.85;17.85;;;;;;;;;;5120517;27;20115;-69
2021/06/12 05:14:26;;;;;;;19.45;16.67;;;;;;;;;;5123588;27;20481;-70
2021/06/12 05:16:52;;;;;;;18.38;16.58;;;;;;;;;;5123982;27;20087;-70
2021/06/12 05:19:18;;;;;;;19.52;17.42;;;;;;;;;;5118252;27;20118;-71
2021/06/12 05:21:45;;;;;;;18.60;16.80;;;;;;;;;;5122210;27;20034;-71
2021/06/12 05:24:11;;;;;;;19.35;17.25;;;;;;;;;;5121213;27;20357;-71
2021/06/12 05:26:37;;;;;;;18.63;16.52;;;;;;;;;;5124861;27;20039;-71
2021/06/12 05:29:03;;;;;;;17.02;15.35;;;;;;;;;;5121156;27;20038;-71
2021/06/12 05:31:31;;;;;;;17.30;15.32;;;;;;;;;;5118468;27;20024;-69
2021/06/12 05:33:57;;;;;;;18.45;15.77;;;;;;;;;;5118219;27;20024;-70
2021/06/12 05:36:23;;;;;;;17.38;15.52;;;;;;;;;;5114711;27;20027;-71
2021/06/12 05:38:49;;;;;;;20.75;15.73;;;;;;;;;;5120909;27;20045;-72
2021/06/12 05:41:15;;;;;;;17.42;15.73;;;;;;;;;;5130872;27;20026;-69
2021/06/12 05:43:41;;;;;;;16.75;15.05;;;;;;;;;;5123761;27;20722;-70
2021/06/12 05:46:07;;;;;;;17.02;15.10;;;;;;;;;;5113092;27;20035;-71
2021/06/12 05:48:33;;;;;;;17.55;15.43;;;;;;;;;;5121777;27;20035;-71
2021/06/12 05:50:59;;;;;;;15.55;14.07;;;;;;;;;;5129768;27;20015;-70
2021/06/12 05:53:25;;;;;;;15.48;13.60;;;;;;;;;;5129468;27;20039;-71
2021/06/12 05:55:52;;;;;;;13.93;12.52;;;;;;;;;;5114201;27;20076;-71
2021/06/12 05:58:18;;;;;;;14.35;12.85;;;;;;;;;;5112465;27;20028;-71
2021/06/12 06:00:44;;;;;;;14.52;13.13;;;;;;;;;;5093663;27;20043;-70
2021/06/12 06:03:10;;;;;;;15.75;14.15;;;;;;;;;;5114351;27;20021;-71
2021/06/12 06:05:36;;;;;;;15.65;14.15;;;;;;;;;;5133278;27;20107;-71
2021/06/12 06:08:02;;;;;;;15.02;13.50;;;;;;;;;;5114039;27;20019;-71
2021/06/12 06:10:28;;;;;;;15.18;13.73;;;;;;;;;;5097020;28;20046;-71
2021/06/12 06:12:54;;;;;;;14.82;13.25;;;;;;;;;;5112718;27;20035;-71
2021/06/12 06:15:20;;;;;;;15.25;13.23;;;;;;;;;;5111307;28;20530;-72
2021/06/12 06:17:46;;;;;;;14.93;13.43;;;;;;;;;;5125311;27;20073;-71
2021/06/12 06:20:14;;;;;;;14.45;13.07;;;;;;;;;;5124415;27;20063;-71
2021/06/12 06:22:40;;;;;;;14.82;13.27;;;;;;;;;;5125035;27;20106;-68
2021/06/12 06:25:07;;;;;;;14.48;13.07;;;;;;;;;;5125192;27;20035;-71
2021/06/12 06:27:33;;;;;;;14.83;13.43;;;;;;;;;;5117957;27;20024;-71
2021/06/12 06:29:59;;;;;;;14.35;12.98;;;;;;;;;;5097515;27;20725;-69
2021/06/12 06:32:25;;;;;;;15.30;13.77;;;;;;;;;;5122191;27;20027;-71
2021/06/12 06:34:53;;;;;;;15.25;13.80;;;;;;;;;;5112027;27;20036;-72
2021/06/12 06:37:20;;;;;;;16.02;14.38;;;;;;;;;;5123693;27;20039;-70
2021/06/12 06:39:46;;;;;;;15.88;14.38;;;;;;;;;;5120667;27;20059;-71
2021/06/12 06:42:12;;;;;;;14.98;13.48;;;;;;;;;;5124785;27;20074;-72
2021/06/12 06:44:39;;;;;;;15.32;13.52;;;;;;;;;;5121936;27;20031;-69
2021/06/12 06:47:05;;;;;;;15.90;14.30;;;;;;;;;;5120254;27;20511;-72
2021/06/12 06:49:32;;;;;;;16.58;14.25;;;;;;;;;;5112369;28;21280;-71
2021/06/12 06:51:58;;;;;;;13.93;12.50;;;;;;;;;;5111638;27;20039;-70
2021/06/12 06:54:24;;;;;;;15.93;14.43;;;;;;;;;;5111059;28;20028;-69
2021/06/12 06:56:57;;;;;;;16.15;14.40;;;;;;;;;;5112523;28;20420;-69
2021/06/12 06:59:23;;;;;;;15.27;13.50;;;;;;;;;;5116082;27;20132;-70
2021/06/12 07:01:49;;;;;;;15.45;13.88;;;;;;;;;;5111851;27;20027;-69
2021/06/12 07:04:18;;;;;;;15.32;13.82;;;;;;;;;;5093937;28;20012;-69
2021/06/12 07:06:44;;;;;;;15.95;13.32;;;;;;;;;;5106733;27;20023;-70
2021/06/12 07:09:10;;;;;;;15.32;13.82;;;;;;;;;;5127164;27;20031;-69
2021/06/12 07:11:36;;;;;;;14.75;13.35;;;;;;;;;;5128837;27;20034;-69
2021/06/12 07:14:02;;;;;;;15.25;13.75;;;;;;;;;;5126391;27;20180;-71
2021/06/12 07:16:28;;;;;;;15.32;13.80;;;;;;;;;;5114445;27;20016;-70
2021/06/12 07:18:54;;;;;;;14.50;12.93;;;;;;;;;;5111679;27;20020;-70
2021/06/12 07:21:21;;;;;;;14.80;13.40;;;;;;;;;;5111546;27;20031;-71
2021/06/12 07:23:47;;;;;;;14.95;12.68;;;;;;;;;;5111350;27;20070;-71
2021/06/12 07:26:13;;;;;;;14.50;13.10;;;;;;;;;;5111845;27;20027;-69
2021/06/12 07:28:39;;;;;;;14.52;13.10;;;;;;;;;;5111494;27;20024;-70
2021/06/12 07:31:05;;;;;;;14.20;12.80;;;;;;;;;;5111371;27;20025;-70
2021/06/12 07:33:31;;;;;;;13.65;12.35;;;;;;;;;;5111757;27;20028;-70
2021/06/12 07:35:57;;;;;;;13.43;11.55;;;;;;;;;;5117048;27;20156;-70
2021/06/12 07:38:23;;;;;;;12.50;11.27;;;;;;;;;;5129432;27;20113;-69
2021/06/12 07:40:49;;;;;;;15.85;12.23;;;;;;;;;;5130351;27;20030;-69
2021/06/12 07:43:19;;;;;;;13.40;12.10;;;;;;;;;;5123808;27;20027;-70
2021/06/12 07:45:49;;;;;;;14.48;12.10;;;;;;;;;;5119264;27;20409;-70
2021/06/12 07:48:15;;;;;;;13.20;11.55;;;;;;;;;;5116789;27;20020;-70
2021/06/12 07:50:41;;;;;;;25.13;10.95;;;;;;;;;;5120613;27;20481;-70
2021/06/12 07:53:07;;;;;;;12.57;11.15;;;;;;;;;;5118120;27;20051;-69
2021/06/12 07:55:33;;;;;;;11.90;10.65;;;;;;;;;;5116550;27;20039;-70
2021/06/12 07:58:00;;;;;;;12.38;10.98;;;;;;;;;;5128641;27;20019;-70
2021/06/12 08:00:26;;;;;;;12.25;10.98;;;;;;;;;;5109722;27;20084;-69
2021/06/12 08:02:52;;;;;;;13.95;11.38;;;;;;;;;;5122877;27;20023;-69
2021/06/12 08:05:18;;;;;;;14.10;10.90;;;;;;;;;;5111491;27;20039;-70
2021/06/12 08:07:44;;;;;;;18.88;13.50;;;;;;;;;;5112753;27;20341;-69
2021/06/12 08:10:10;;;;;;;12.18;10.60;;;;;;;;;;5118797;27;20019;-69
2021/06/12 08:12:36;;;;;;;12.70;10.50;;;;;;;;;;5110931;28;20066;-69
2021/06/12 08:15:03;;;;;;;10.73;9.60;;;;;;;;;;5110644;28;20034;-70
2021/06/12 08:17:29;;;;;;;10.18;9.25;;;;;;;;;;5110755;28;20032;-68
2021/06/12 08:19:56;;;;;;;11.13;9.82;;;;;;;;;;5109774;28;20023;-69
2021/06/12 08:22:22;;;;;;;12.57;9.18;;;;;;;;;;5111691;28;20106;-69
2021/06/12 08:24:49;;;;;;;10.35;9.25;;;;;;;;;;5110542;28;20087;-69
2021/06/12 08:27:15;;;;;;;12.13;9.82;;;;;;;;;;5110016;28;20032;-69
2021/06/12 08:29:41;;;;;;;13.13;9.75;;;;;;;;;;5111606;28;20027;-70
2021/06/12 08:32:07;;;;;;;10.73;9.63;;;;;;;;;;5110141;28;20028;-69
2021/06/12 08:34:33;;;;;;;10.65;9.57;;;;;;;;;;5120074;27;20030;-69
2021/06/12 08:37:02;;;;;;;11.10;10.00;;;;;;;;;;5122975;27;20040;-70
2021/06/12 08:39:28;;;;;;;12.38;10.20;;;;;;;;;;5123667;27;20071;-70
2021/06/12 08:41:54;;;;;;;11.27;9.77;;;;;;;;;;5128993;27;20031;-70
2021/06/12 08:44:22;;;;;;;10.18;9.18;;;;;;;;;;5122999;27;20181;-70
2021/06/12 08:46:48;;;;;;;10.60;9.02;;;;;;;;;;5115358;27;20126;-69
2021/06/12 08:49:15;;;;;;;12.25;9.27;;;;;;;;;;5117246;27;20096;-69
2021/06/12 08:51:41;;;;;;;9.55;8.52;;;;;;;;;;5106383;28;20043;-70
2021/06/12 08:54:07;;;;;;;10.25;8.70;;;;;;;;;;5119434;27;20054;-68
2021/06/12 08:56:33;;;;;;;9.05;8.18;;;;;;;;;;5126343;27;20470;-69
2021/06/12 08:58:59;;;;;;;9.50;8.60;;;;;;;;;;5118819;27;20516;-68
2021/06/12 09:01:26;;;;;;;9.35;8.35;;;;;;;;;;5128291;27;20035;-70
2021/06/12 09:03:52;;;;;;;10.18;9.18;;;;;;;;;;5107258;27;20113;-69
2021/06/12 09:06:21;;;;;;;9.30;8.40;;;;;;;;;;5125052;27;20089;-69
2021/06/12 09:08:48;;;;;;;9.77;8.77;;;;;;;;;;5128839;27;20485;-69
2021/06/12 09:11:18;;;;;;;9.70;8.50;;;;;;;;;;5128335;27;20015;-72
2021/06/12 09:13:52;;;;;;;9.88;8.80;;;;;;;;;;5124634;27;20031;-69
2021/06/12 09:16:27;;;;;;;12.65;8.77;;;;;;;;;;5114062;27;20015;-70
2021/06/12 09:18:54;;;;;;;9.60;8.70;;;;;;;;;;5113861;27;20035;-69
2021/06/12 09:21:24;;;;;;;9.48;8.55;;;;;;;;;;5114056;27;20024;-69
2021/06/12 09:23:52;;;;;;;9.57;8.68;;;;;;;;;;5113302;28;20027;-70
2021/06/12 09:26:19;;;;;;;9.50;8.38;;;;;;;;;;5114050;27;20043;-70
2021/06/12 09:28:55;;;;;;;10.38;8.30;;;;;;;;;;5120905;27;20134;-70
2021/06/12 09:31:28;;;;;;;9.47;8.57;;;;;;;;;;5121714;27;20504;-70
2021/06/12 09:33:56;;;;;;;9.20;8.15;;;;;;;;;;5120911;27;20305;-69
2021/06/12 09:36:32;;;;;;;8.93;8.07;;;;;;;;;;5128375;27;20046;-70
2021/06/12 09:39:08;;;;;;;8.60;7.57;;;;;;;;;;5130502;27;20023;-70
2021/06/12 09:41:34;;;;;;;9.90;8.68;;;;;;;;;;5119231;27;20039;-71
2021/06/12 09:44:00;;;;;;;9.00;8.13;;;;;;;;;;5125964;27;20023;-71
2021/06/12 09:46:40;;;;;;;10.52;9.23;;;;;;;;;;5106323;27;20453;-71
2021/06/12 09:49:07;;;;;;;12.35;9.52;;;;;;;;;;5101980;27;20098;-70
2021/06/12 09:51:34;;;;;;;12.60;8.55;;;;;;;;;;5120762;27;20035;-69
2021/06/12 09:54:01;;;;;;;9.65;7.72;;;;;;;;;;5122144;27;20031;-72
2021/06/12 09:56:27;;;;;;;9.32;8.25;;;;;;;;;;5128517;27;20118;-72
2021/06/12 09:58:54;;;;;;;8.75;7.95;;;;;;;;;;5119124;27;20027;-72
2021/06/12 10:01:24;;;;;;;8.93;7.13;;;;;;;;;;5118957;27;20051;-71
2021/06/12 10:04:07;;;;;;;10.45;8.10;;;;;;;;;;5116935;27;20031;-72
2021/06/12 10:06:33;;;;;;;9.23;7.78;;;;;;;;;;5119776;27;20050;-72
2021/06/12 10:09:01;;;;;;;15.57;12.40;;;;;;;;;;5119421;27;20023;-72
2021/06/12 10:11:30;;;;;;;10.43;7.30;;;;;;;;;;5119019;27;20118;-72
2021/06/12 10:13:56;;;;;;;7.90;7.20;;;;;;;;;;5118872;27;20045;-73
2021/06/12 10:16:24;;;;;;;8.90;7.47;;;;;;;;;;5119310;27;20122;-70
2021/06/12 10:18:51;;;;;;;10.45;7.57;;;;;;;;;;5121034;27;20038;-70
2021/06/12 10:21:17;;;;;;;8.35;7.55;;;;;;;;;;5114706;27;20398;-72
2021/06/12 10:23:44;;;;;;;12.20;9.98;;;;;;;;;;5121089;27;20042;-71
2021/06/12 10:26:11;;;;;;;9.73;8.77;;;;;;;;;;5122510;27;20054;-71
2021/06/12 10:28:37;;;;;;;;;;;;;;;;;;5119785;27;20102;-72
2021/06/12 10:31:07;;;;;;;10.90;8.60;;;;;;;;;;5124534;27;20006;-72
2021/06/12 10:33:34;;;;;;;11.25;9.23;;;;;;;;;;5120869;27;20574;-71
2021/06/12 10:36:00;;;;;;;;;;;;;;;;;;5103193;27;20306;-71
2021/06/12 10:38:32;;;;;;;13.93;8.80;;;;;;;;;;5122434;27;20385;-72
2021/06/12 10:40:58;;;;;;;14.45;12.07;;;;;;;;;;5120687;27;20277;-71
2021/06/12 10:43:26;;;;;;;15.02;12.35;;;;;;;;;;5119335;27;20100;-72
2021/06/12 10:46:07;;;;;;;14.38;12.05;;;;;;;;;;5118578;27;20027;-72
2021/06/12 10:49:02;;;;;;;13.95;11.10;;;;;;;;;;5119709;27;20355;-72
2021/06/12 10:51:29;;;;;;;19.03;16.40;;;;;;;;;;5104780;27;20032;-72
2021/06/12 10:54:08;;;;;;;15.27;11.27;;;;;;;;;;5117721;27;20131;-72
2021/06/12 10:56:35;;;;;;;13.30;11.38;;;;;;;;;;5120742;27;20023;-71
2021/06/12 10:59:01;;;;;;;14.05;12.57;;;;;;;;;;5122230;27;20046;-71
2021/06/12 11:01:27;;;;;;;14.40;12.33;;;;;;;;;;5121784;27;20385;-70
2021/06/12 11:06:32;;;;;;;13.30;11.10;;;;;;;;;;5120449;27;20477;-72
2021/06/12 11:09:20;;;;;;;11.35;9.55;;;;;;;;;;5119192;27;20038;-71
2021/06/12 11:12:16;;;;;;;11.40;10.20;;;;;;;;;;5091776;27;20027;-70
2021/06/12 11:14:54;;;;;;;13.33;11.73;;;;;;;;;;5082479;27;20095;-69
2021/06/12 11:17:20;;;;;;;12.55;10.88;;;;;;;;;;5124022;27;20150;-69
2021/06/12 11:19:51;;;;;;;13.73;11.02;;;;;;;;;;5118870;27;20439;-69
2021/06/12 11:22:39;;;;;;;14.48;10.13;;;;;;;;;;5121973;27;20023;-69
2021/06/12 11:25:08;;;;;;;14.88;10.93;;;;;;;;;;5118097;27;20051;-69
2021/06/12 11:27:39;;;;;;;11.32;9.50;;;;;;;;;;5122390;27;20042;-69
2021/06/12 11:30:11;;;;;;;9.63;8.60;;;;;;;;;;5122396;27;20033;-70
2021/06/12 11:32:38;;;;;;;12.25;9.10;;;;;;;;;;5116503;27;20493;-72
2021/06/12 11:35:04;;;;;;;10.63;8.65;;;;;;;;;;5116217;27;20083;-70
2021/06/12 11:37:30;;;;;;;10.77;9.10;;;;;;;;;;5120867;27;20023;-71
2021/06/12 11:39:58;;;;;;;10.03;8.50;;;;;;;;;;5119817;27;20034;-70
2021/06/12 11:42:41;;;;;;;13.85;11.48;;;;;;;;;;5119682;27;20305;-72
2021/06/12 11:45:17;;;;;;;10.52;8.70;;;;;;;;;;5120278;27;20123;-70
2021/06/12 11:47:43;;;;;;;;;;;;;;;;;;5118293;27;20116;-71
2021/06/12 11:50:10;;;;;;;8.38;7.38;;;;;;;;;;5118066;27;19915;-70
2021/06/12 11:52:40;;;;;;;8.23;7.32;;;;;;;;;;5119173;27;20065;-71
2021/06/12 11:55:25;;;;;;;8.02;6.78;;;;;;;;;;5118420;27;20114;-71
2021/06/12 11:57:53;;;;;;;8.03;7.33;;;;;;;;;;5118981;27;20023;-71
2021/06/12 12:00:32;;;;;;;9.88;8.93;;;;;;;;;;5117542;27;20020;-70
2021/06/12 12:03:03;;;;;;;8.70;7.88;;;;;;;;;;5116791;27;20023;-72
2021/06/12 12:05:39;;;;;;;8.02;7.28;;;;;;;;;;5121814;27;20432;-71
2021/06/12 12:08:10;;;;;;;7.82;7.10;;;;;;;;;;5098489;27;20027;-71
2021/06/12 12:10:36;;;;;;;7.20;6.50;;;;;;;;;;5122404;27;20031;-71
2021/06/12 12:13:03;;;;;;;8.48;7.57;;;;;;;;;;5120294;27;20062;-71
2021/06/12 12:15:38;;;;;;;9.27;7.35;;;;;;;;;;5119707;27;20023;-70
2021/06/12 12:18:05;;;;;;;7.15;6.43;;;;;;;;;;5117348;27;20019;-70
2021/06/12 12:20:35;;;;;;;7.57;6.28;;;;;;;;;;5118445;27;20030;-71
2021/06/12 12:23:01;;;;;;;8.30;6.60;;;;;;;;;;5102761;27;20123;-70
2021/06/12 12:25:28;;;;;;;7.00;6.40;;;;;;;;;;5120235;27;20034;-71
2021/06/12 12:28:22;;;;;;;7.15;6.40;;;;;;;;;;5119366;27;20035;-71
2021/06/12 12:30:49;;;;;;;7.85;6.80;;;;;;;;;;5096258;28;20431;-70
2021/06/12 12:33:19;;;;;;;7.00;6.30;;;;;;;;;;5123085;28;20027;-72
2021/06/12 12:35:45;;;;;;;8.45;6.80;;;;;;;;;;5122498;28;20027;-71
2021/06/12 12:38:11;;;;;;;10.82;6.05;;;;;;;;;;5121120;28;20031;-70
2021/06/12 12:40:38;;;;;;;;;;;;;;;;;;5101272;28;20031;-70
2021/06/12 12:43:04;;;;;;;8.55;6.13;;;;;;;;;;5118987;28;19918;-68
2021/06/12 12:45:31;;;;;;;8.95;8.05;;;;;;;;;;5122836;28;20100;-70
2021/06/12 12:47:57;;;;;;;8.05;6.68;;;;;;;;;;5095220;28;20448;-70
2021/06/12 12:50:23;;;;;;;8.75;5.70;;;;;;;;;;5121440;28;20359;-69
2021/06/12 12:53:08;;;;;;;8.52;6.00;;;;;;;;;;5094678;28;20047;-71
2021/06/12 12:55:34;;;;;;;6.05;5.47;;;;;;;;;;5119781;28;20032;-71
2021/06/12 12:58:00;;;;;;;5.90;5.40;;;;;;;;;;5113082;28;20047;-71
2021/06/12 13:00:30;;;;;;;7.20;6.50;;;;;;;;;;5115500;28;20382;-70
2021/06/12 13:02:56;;;;;;;8.85;5.50;;;;;;;;;;5118655;28;20023;-70
2021/06/12 13:05:22;;;;;;;6.55;5.78;;;;;;;;;;5099173;28;20031;-71
2021/06/12 13:07:56;;;;;;;11.40;6.40;;;;;;;;;;5119738;28;20047;-71
2021/06/12 13:10:27;;;;;;;8.98;6.00;;;;;;;;;;5125730;28;20059;-70
2021/06/12 13:12:58;;;;;;;5.50;5.10;;;;;;;;;;5119378;28;20034;-70
2021/06/12 13:15:24;;;;;;;6.28;5.68;;;;;;;;;;5120460;28;20055;-70
2021/06/12 13:17:51;;;;;;;6.05;5.47;;;;;;;;;;5123415;28;20030;-71
2021/06/12 13:20:21;;;;;;;7.65;6.85;;;;;;;;;;5118589;27;20027;-71
2021/06/12 13:22:47;;;;;;;7.22;6.60;;;;;;;;;;5125427;27;20035;-71
2021/06/12 13:25:13;;;;;;;8.40;6.07;;;;;;;;;;5128835;27;20023;-71
2021/06/12 13:27:48;;;;;;;6.45;5.85;;;;;;;;;;5121397;27;20062;-70
2021/06/12 13:30:17;;;;;;;9.38;5.65;;;;;;;;;;5120658;27;20039;-71
2021/06/12 13:32:44;;;;;;;7.60;5.40;;;;;;;;;;5122306;27;20032;-72
2021/06/12 13:35:20;;;;;;;6.03;5.40;;;;;;;;;;5122366;27;20062;-71
2021/06/12 13:37:46;;;;;;;7.88;5.38;;;;;;;;;;5119627;27;20031;-70
2021/06/12 13:40:13;;;;;;;8.05;5.25;;;;;;;;;;5120120;27;20039;-71
2021/06/12 13:42:39;;;;;;;5.70;4.90;;;;;;;;;;5122350;27;20116;-70
2021/06/12 13:45:05;;;;;;;5.90;5.40;;;;;;;;;;5121780;27;20139;-71
2021/06/12 13:47:31;;;;;;;6.40;5.22;;;;;;;;;;5119544;27;20042;-71
2021/06/12 13:49:59;;;;;;;11.18;4.60;;;;;;;;;;5119533;27;20464;-71
2021/06/12 13:52:25;;;;;;;5.32;4.70;;;;;;;;;;5119492;27;20381;-71
2021/06/12 13:54:51;;;;;;;6.22;4.80;;;;;;;;;;5120918;27;20026;-71
2021/06/12 13:57:20;;;;;;;4.95;4.53;;;;;;;;;;5122397;27;20038;-70
2021/06/12 13:59:46;;;;;;;7.82;5.30;;;;;;;;;;5120004;27;20038;-70
2021/06/12 14:02:12;;;;;;;7.47;5.50;;;;;;;;;;5120127;27;20041;-72
2021/06/12 14:04:39;;;;;;;5.35;4.85;;;;;;;;;;5120339;27;21395;-71
2021/06/12 14:07:06;;;;;;;9.38;5.20;;;;;;;;;;5124291;27;20037;-71
2021/06/12 14:09:32;;;;;;;5.43;4.80;;;;;;;;;;5125524;27;20019;-71
2021/06/12 14:11:58;;;;;;;8.40;4.93;;;;;;;;;;5121010;27;20043;-72
2021/06/12 14:14:24;;;;;;;7.63;5.00;;;;;;;;;;5124648;27;20042;-71
2021/06/12 14:16:50;;;;;;;6.28;4.93;;;;;;;;;;5117272;27;20031;-72
2021/06/12 14:19:16;;;;;;;6.82;4.72;;;;;;;;;;5123906;27;20040;-72
2021/06/12 14:21:42;;;;;;;5.53;4.90;;;;;;;;;;5119334;27;20043;-70
2021/06/12 14:24:11;;;;;;;6.72;4.15;;;;;;;;;;5120431;27;20102;-70
2021/06/12 14:26:38;;;;;;;6.22;4.60;;;;;;;;;;5122897;27;20063;-72
2021/06/12 14:29:04;;;;;;;6.80;4.43;;;;;;;;;;5117310;27;20032;-71
2021/06/12 14:31:30;;;;;;;5.78;4.25;;;;;;;;;;5119604;27;20054;-70